Time;durP1;ratioP1;P1;durP2;ratioP2;P2;SDS_P1;SDS_P2;PMS_P1;PMS_P2;Temp;Humidity;BMP_temperature;BMP_pressure;BME280_temperature;BME280_humidity;BME280_pressure;Samples;Min_cycle;Max_cycle;Signal;HPM_P1;HPM_P2
2022/12/29 00:01:55;;;;;;;13.07;8.23;;;;;;;;;;5018677;28;20046;-80
2022/12/29 00:04:22;;;;;;;16.88;8.48;;;;;;;;;;5021172;28;20037;-80
2022/12/29 00:06:48;;;;;;;15.27;9.35;;;;;;;;;;5015743;28;20093;-80
2022/12/29 00:09:14;;;;;;;18.80;8.95;;;;;;;;;;5028325;28;20041;-81
2022/12/29 00:11:40;;;;;;;13.77;8.02;;;;;;;;;;5020006;28;20021;-80
2022/12/29 00:16:53;;;;;;;12.90;7.18;;;;;;;;;;5020813;28;20037;-80
2022/12/29 00:36:10;;;;;;;16.45;9.10;;;;;;;;;;5014831;28;20419;-79
2022/12/29 00:44:10;;;;;;;14.80;8.60;;;;;;;;;;5019374;28;20092;-81
2022/12/29 00:46:40;;;;;;;13.05;8.10;;;;;;;;;;5019191;28;20060;-80
2022/12/29 00:51:52;;;;;;;14.70;8.10;;;;;;;;;;5021793;28;20065;-81
2022/12/29 00:54:18;;;;;;;15.80;9.43;;;;;;;;;;5018467;28;20030;-78
2022/12/29 00:56:48;;;;;;;13.63;8.15;;;;;;;;;;5005716;28;20105;-80
2022/12/29 00:59:15;;;;;;;15.23;9.60;;;;;;;;;;5022888;28;20021;-80
2022/12/29 01:01:41;;;;;;;14.65;8.73;;;;;;;;;;5017994;28;20408;-80
2022/12/29 01:04:07;;;;;;;15.40;8.75;;;;;;;;;;5018910;28;20107;-80
2022/12/29 01:06:34;;;;;;;13.10;7.70;;;;;;;;;;5019030;28;20030;-80
2022/12/29 01:11:44;;;;;;;14.90;7.57;;;;;;;;;;5018960;28;20064;-80
2022/12/29 01:14:10;;;;;;;12.60;7.63;;;;;;;;;;5023487;28;20098;-79
2022/12/29 01:16:36;;;;;;;15.25;8.38;;;;;;;;;;5023891;28;20034;-80
2022/12/29 01:19:03;;;;;;;15.18;8.38;;;;;;;;;;5021317;28;20113;-79
2022/12/29 01:21:29;;;;;;;12.68;8.00;;;;;;;;;;5018494;28;20025;-80
2022/12/29 01:23:55;;;;;;;15.25;8.00;;;;;;;;;;5023748;28;20072;-80
2022/12/29 01:26:21;;;;;;;13.75;7.75;;;;;;;;;;5017941;28;20369;-80
2022/12/29 01:28:47;;;;;;;17.42;9.57;;;;;;;;;;5018678;28;20037;-80
2022/12/29 01:31:14;;;;;;;14.55;8.82;;;;;;;;;;5037596;28;20059;-79
2022/12/29 01:33:41;;;;;;;17.13;9.02;;;;;;;;;;5036516;28;20029;-79
2022/12/29 01:36:08;;;;;;;15.15;8.23;;;;;;;;;;5019134;28;20032;-79
2022/12/29 01:38:36;;;;;;;12.90;7.50;;;;;;;;;;5017275;28;20421;-80
2022/12/29 01:41:02;;;;;;;16.38;9.50;;;;;;;;;;5034686;28;20038;-80
2022/12/29 01:43:43;;;;;;;13.35;8.48;;;;;;;;;;5021182;28;20027;-80
2022/12/29 01:46:29;;;;;;;13.90;8.00;;;;;;;;;;5009599;28;20032;-79
2022/12/29 01:49:01;;;;;;;13.85;8.48;;;;;;;;;;5003313;28;20029;-80
2022/12/29 01:51:28;;;;;;;12.50;7.45;;;;;;;;;;5018431;28;20053;-80
2022/12/29 01:53:55;;;;;;;17.13;8.23;;;;;;;;;;5014430;28;20116;-80
2022/12/29 01:56:22;;;;;;;12.60;7.20;;;;;;;;;;5015511;28;20116;-80
2022/12/29 01:58:49;;;;;;;16.75;8.52;;;;;;;;;;5035699;28;20025;-80
2022/12/29 02:01:17;;;;;;;15.77;8.45;;;;;;;;;;5036834;28;20052;-79
2022/12/29 02:03:43;;;;;;;18.02;8.70;;;;;;;;;;5031473;28;20034;-80
2022/12/29 02:06:16;;;;;;;12.93;7.18;;;;;;;;;;5016590;28;20030;-80
2022/12/29 02:08:43;;;;;;;12.55;7.72;;;;;;;;;;5023537;28;20040;-79
2022/12/29 02:11:09;;;;;;;12.57;8.10;;;;;;;;;;5016954;28;20030;-80
2022/12/29 02:13:35;;;;;;;13.55;8.55;;;;;;;;;;5018265;28;20036;-79
2022/12/29 02:16:27;;;;;;;13.18;7.60;;;;;;;;;;5016556;28;20072;-79
2022/12/29 02:19:05;;;;;;;15.88;8.00;;;;;;;;;;5016323;28;20030;-80
2022/12/29 02:21:45;;;;;;;14.82;8.30;;;;;;;;;;5017611;28;20032;-79
2022/12/29 02:24:20;;;;;;;14.57;7.50;;;;;;;;;;5016125;28;20034;-80
2022/12/29 02:26:49;;;;;;;14.40;7.10;;;;;;;;;;5016791;28;20025;-80
2022/12/29 02:29:15;;;;;;;14.95;6.82;;;;;;;;;;5018131;28;20041;-80
2022/12/29 02:31:44;;;;;;;14.30;7.80;;;;;;;;;;5016524;28;20030;-80
2022/12/29 02:34:27;;;;;;;11.45;7.78;;;;;;;;;;5026319;28;20504;-80
2022/12/29 02:36:56;;;;;;;13.90;7.82;;;;;;;;;;5016052;28;20022;-80
2022/12/29 02:39:50;;;;;;;13.52;7.60;;;;;;;;;;5015419;28;20061;-79
2022/12/29 02:42:31;;;;;;;14.63;7.10;;;;;;;;;;5015468;28;20033;-80
2022/12/29 02:45:03;;;;;;;13.65;7.30;;;;;;;;;;5016817;28;20061;-79
2022/12/29 02:47:42;;;;;;;13.85;7.97;;;;;;;;;;5016449;28;20068;-80
2022/12/29 02:50:14;;;;;;;14.95;7.53;;;;;;;;;;5017226;28;20025;-80
2022/12/29 02:52:59;;;;;;;11.67;6.87;;;;;;;;;;5016529;28;20030;-80
2022/12/29 02:55:25;;;;;;;14.70;8.02;;;;;;;;;;5020133;28;20041;-80
2022/12/29 02:58:10;;;;;;;15.65;8.30;;;;;;;;;;5015199;28;20045;-80
2022/12/29 03:00:46;;;;;;;13.27;7.97;;;;;;;;;;5014902;28;20129;-79
2022/12/29 03:03:45;;;;;;;13.27;6.97;;;;;;;;;;5015781;28;20022;-80
2022/12/29 03:06:29;;;;;;;12.77;7.32;;;;;;;;;;4995555;28;20046;-80
2022/12/29 03:09:24;;;;;;;14.35;7.13;;;;;;;;;;5006540;28;20025;-80
2022/12/29 03:12:08;;;;;;;14.52;6.80;;;;;;;;;;5003887;28;20157;-80
2022/12/29 03:17:30;;;;;;;13.73;8.00;;;;;;;;;;5031091;28;20041;-78
2022/12/29 03:20:01;;;;;;;13.75;7.10;;;;;;;;;;5031272;28;20059;-80
2022/12/29 03:22:31;;;;;;;17.45;8.18;;;;;;;;;;5003054;28;20034;-80
2022/12/29 03:24:59;;;;;;;15.32;7.93;;;;;;;;;;5030506;28;20033;-80
2022/12/29 03:27:35;;;;;;;15.18;8.57;;;;;;;;;;5021657;28;20025;-80
2022/12/29 03:30:03;;;;;;;14.32;7.53;;;;;;;;;;5019446;28;20034;-80
2022/12/29 03:32:31;;;;;;;14.32;7.78;;;;;;;;;;5019194;28;20038;-80
2022/12/29 03:34:58;;;;;;;15.02;8.25;;;;;;;;;;5020366;28;20026;-79
2022/12/29 03:37:27;;;;;;;13.80;7.75;;;;;;;;;;5019553;28;20018;-79
2022/12/29 03:39:53;;;;;;;12.80;7.25;;;;;;;;;;5023348;28;20069;-79
2022/12/29 03:42:23;;;;;;;13.55;7.60;;;;;;;;;;5020873;28;20030;-79
2022/12/29 03:44:53;;;;;;;15.73;8.23;;;;;;;;;;5020360;28;20022;-79
2022/12/29 03:47:19;;;;;;;15.27;8.07;;;;;;;;;;5019974;28;20022;-80
2022/12/29 03:49:45;;;;;;;12.18;7.53;;;;;;;;;;5020299;28;20033;-80
2022/12/29 03:52:11;;;;;;;14.52;7.53;;;;;;;;;;5018474;28;20030;-79
2022/12/29 03:54:37;;;;;;;15.23;7.53;;;;;;;;;;5038931;28;20041;-80
2022/12/29 03:57:03;;;;;;;14.55;8.65;;;;;;;;;;5032971;28;20028;-80
2022/12/29 03:59:29;;;;;;;15.02;7.97;;;;;;;;;;5019582;28;20030;-80
2022/12/29 04:01:55;;;;;;;12.05;7.38;;;;;;;;;;5018747;28;20048;-79
2022/12/29 04:04:21;;;;;;;12.20;7.05;;;;;;;;;;5019903;28;20018;-79
2022/12/29 04:06:47;;;;;;;13.80;7.45;;;;;;;;;;5025545;28;20025;-80
2022/12/29 04:09:13;;;;;;;11.20;7.13;;;;;;;;;;5021709;28;20130;-79
2022/12/29 04:11:40;;;;;;;14.13;7.90;;;;;;;;;;5022013;28;20033;-79
2022/12/29 04:14:06;;;;;;;13.60;8.40;;;;;;;;;;5021491;28;20041;-79
2022/12/29 04:16:35;;;;;;;13.30;8.07;;;;;;;;;;5026855;28;20025;-79
2022/12/29 04:19:01;;;;;;;13.20;8.02;;;;;;;;;;5024391;28;20029;-79
2022/12/29 04:21:27;;;;;;;13.52;7.78;;;;;;;;;;5020019;28;20030;-80
2022/12/29 04:23:53;;;;;;;15.02;9.18;;;;;;;;;;5021120;28;20025;-79
2022/12/29 04:26:19;;;;;;;14.25;8.90;;;;;;;;;;5018417;28;20072;-79
2022/12/29 04:28:45;;;;;;;16.63;8.85;;;;;;;;;;5019459;28;20030;-79
2022/12/29 04:31:11;;;;;;;14.80;8.98;;;;;;;;;;5019772;28;20554;-79
2022/12/29 04:33:37;;;;;;;15.88;8.70;;;;;;;;;;4999668;28;20022;-79
2022/12/29 04:36:03;;;;;;;16.70;8.75;;;;;;;;;;5008651;28;20543;-80
2022/12/29 04:38:29;;;;;;;15.05;8.65;;;;;;;;;;5024601;28;20144;-79
2022/12/29 04:40:55;;;;;;;13.90;8.60;;;;;;;;;;5020104;28;20050;-80
2022/12/29 04:43:24;;;;;;;16.92;9.05;;;;;;;;;;5018742;28;20048;-78
2022/12/29 04:45:50;;;;;;;13.75;8.13;;;;;;;;;;5024340;28;20034;-79
2022/12/29 04:48:16;;;;;;;16.08;8.38;;;;;;;;;;5018231;28;20033;-79
2022/12/29 04:50:47;;;;;;;18.20;9.70;;;;;;;;;;5020725;28;20100;-80
2022/12/29 04:53:13;;;;;;;16.52;8.00;;;;;;;;;;5020036;28;20026;-79
2022/12/29 04:55:39;;;;;;;16.40;8.90;;;;;;;;;;5020848;28;20061;-79
2022/12/29 04:58:05;;;;;;;16.17;8.80;;;;;;;;;;5020354;28;20025;-79
2022/12/29 05:00:31;;;;;;;12.80;8.00;;;;;;;;;;5019085;28;20045;-79
2022/12/29 05:02:58;;;;;;;18.05;10.00;;;;;;;;;;5018441;28;20400;-80
2022/12/29 05:05:24;;;;;;;16.90;9.65;;;;;;;;;;5018729;28;20032;-79
2022/12/29 05:07:50;;;;;;;13.02;7.88;;;;;;;;;;5019986;28;20108;-79
2022/12/29 05:10:16;;;;;;;16.88;9.45;;;;;;;;;;5019694;28;20040;-79
2022/12/29 05:12:43;;;;;;;17.25;8.70;;;;;;;;;;5018026;28;20507;-79
2022/12/29 05:15:09;;;;;;;16.90;9.35;;;;;;;;;;5019532;28;20064;-79
2022/12/29 05:17:35;;;;;;;19.17;9.38;;;;;;;;;;5018448;28;20499;-79
2022/12/29 05:20:02;;;;;;;13.70;8.70;;;;;;;;;;5022136;28;20089;-79
2022/12/29 05:22:28;;;;;;;17.00;8.35;;;;;;;;;;5020885;28;20022;-79
2022/12/29 05:24:54;;;;;;;18.60;9.70;;;;;;;;;;5020144;28;20025;-79
2022/12/29 05:27:20;;;;;;;16.52;9.30;;;;;;;;;;5017643;28;20034;-79
2022/12/29 05:29:46;;;;;;;14.60;8.90;;;;;;;;;;5017739;28;20018;-80
2022/12/29 05:32:12;;;;;;;18.65;9.80;;;;;;;;;;5019272;28;20045;-79
2022/12/29 05:34:38;;;;;;;14.30;9.25;;;;;;;;;;5016952;28;20124;-80
2022/12/29 05:37:04;;;;;;;18.02;10.20;;;;;;;;;;5019086;28;20049;-77
2022/12/29 05:39:30;;;;;;;17.00;10.40;;;;;;;;;;5018118;28;20117;-79
2022/12/29 05:41:56;;;;;;;17.65;9.77;;;;;;;;;;5017218;28;20384;-79
2022/12/29 05:44:22;;;;;;;17.42;10.23;;;;;;;;;;5017204;28;20116;-78
2022/12/29 05:46:48;;;;;;;17.98;9.90;;;;;;;;;;5017250;28;20053;-79
2022/12/29 05:49:14;;;;;;;19.58;11.13;;;;;;;;;;5017762;28;20108;-80
2022/12/29 05:51:40;;;;;;;20.30;10.00;;;;;;;;;;5017708;28;20026;-80
2022/12/29 05:54:06;;;;;;;16.00;9.10;;;;;;;;;;5017276;28;20256;-80
2022/12/29 05:56:32;;;;;;;20.05;11.38;;;;;;;;;;5015099;28;20029;-79
2022/12/29 05:58:58;;;;;;;20.70;12.48;;;;;;;;;;5029359;28;20022;-79
2022/12/29 06:01:24;;;;;;;17.88;12.05;;;;;;;;;;5017711;28;20069;-80
2022/12/29 06:03:50;;;;;;;16.25;10.00;;;;;;;;;;5013976;28;20488;-79
2022/12/29 06:06:16;;;;;;;19.13;10.70;;;;;;;;;;5013804;28;20029;-77
2022/12/29 06:08:43;;;;;;;19.50;11.43;;;;;;;;;;5012658;28;20034;-79
2022/12/29 06:11:09;;;;;;;21.08;11.48;;;;;;;;;;5030491;28;20037;-78
2022/12/29 06:13:35;;;;;;;20.02;11.45;;;;;;;;;;5024301;28;20018;-79
2022/12/29 06:16:01;;;;;;;17.23;10.75;;;;;;;;;;5016836;28;20022;-80
2022/12/29 06:18:27;;;;;;;20.80;11.93;;;;;;;;;;5018477;28;20030;-79
2022/12/29 06:20:53;;;;;;;22.55;11.85;;;;;;;;;;5015814;28;20026;-79
2022/12/29 06:23:20;;;;;;;19.98;12.07;;;;;;;;;;5035360;28;20029;-80
2022/12/29 06:25:48;;;;;;;21.00;12.02;;;;;;;;;;5020871;28;20021;-80
2022/12/29 06:28:14;;;;;;;27.17;14.07;;;;;;;;;;5014985;28;20018;-80
2022/12/29 06:30:40;;;;;;;31.50;16.05;;;;;;;;;;5017961;28;20064;-80
2022/12/29 06:33:08;;;;;;;30.25;14.90;;;;;;;;;;5016190;28;20042;-79
2022/12/29 06:35:34;;;;;;;27.48;13.35;;;;;;;;;;5017487;28;20021;-80
2022/12/29 06:38:00;;;;;;;28.83;13.30;;;;;;;;;;5018702;28;20029;-80
2022/12/29 06:40:26;;;;;;;21.27;12.50;;;;;;;;;;5016025;28;20034;-79
2022/12/29 06:42:52;;;;;;;26.98;13.32;;;;;;;;;;5014390;28;20391;-80
2022/12/29 06:45:18;;;;;;;25.65;13.75;;;;;;;;;;5015901;28;20495;-79
2022/12/29 06:47:44;;;;;;;22.50;12.90;;;;;;;;;;5014067;28;20077;-79
2022/12/29 06:50:10;;;;;;;21.42;12.65;;;;;;;;;;4997259;28;20418;-79
2022/12/29 06:52:36;;;;;;;27.38;13.48;;;;;;;;;;5006188;28;20460;-79
2022/12/29 06:55:02;;;;;;;22.65;13.45;;;;;;;;;;5015782;28;20057;-80
2022/12/29 06:57:28;;;;;;;26.90;14.45;;;;;;;;;;5015498;28;20030;-79
2022/12/29 06:59:55;;;;;;;24.80;15.05;;;;;;;;;;5027588;28;20133;-80
2022/12/29 07:02:21;;;;;;;25.60;13.52;;;;;;;;;;5028105;28;20049;-79
2022/12/29 07:04:47;;;;;;;27.52;13.98;;;;;;;;;;5015183;28;20026;-80
2022/12/29 07:07:13;;;;;;;30.67;16.73;;;;;;;;;;5030218;28;20038;-79
2022/12/29 07:09:39;;;;;;;27.13;14.43;;;;;;;;;;5019529;28;20069;-80
2022/12/29 07:12:05;;;;;;;28.08;14.45;;;;;;;;;;5015463;28;20022;-78
2022/12/29 07:14:31;;;;;;;24.52;15.15;;;;;;;;;;5027563;28;20095;-78
2022/12/29 07:16:57;;;;;;;30.08;15.32;;;;;;;;;;5022555;28;20030;-80
2022/12/29 07:19:23;;;;;;;28.42;13.70;;;;;;;;;;5016387;28;20492;-79
2022/12/29 07:21:49;;;;;;;30.67;16.23;;;;;;;;;;5016490;28;20053;-80
2022/12/29 07:24:16;;;;;;;32.25;17.50;;;;;;;;;;5016437;28;20037;-84
2022/12/29 07:26:42;;;;;;;25.65;15.70;;;;;;;;;;5014208;28;20073;-82
2022/12/29 07:29:10;;;;;;;30.55;16.08;;;;;;;;;;5012276;28;20029;-81
2022/12/29 07:31:36;;;;;;;28.75;14.90;;;;;;;;;;5017822;28;20025;-81
2022/12/29 07:34:02;;;;;;;27.80;14.30;;;;;;;;;;5020836;28;20041;-81
2022/12/29 07:36:29;;;;;;;28.10;14.70;;;;;;;;;;5015306;28;20424;-78
2022/12/29 07:38:55;;;;;;;29.30;15.60;;;;;;;;;;5016167;28;20018;-82
2022/12/29 07:41:21;;;;;;;33.08;17.83;;;;;;;;;;5016280;28;20029;-82
2022/12/29 07:43:48;;;;;;;31.23;14.65;;;;;;;;;;5025973;28;20033;-82
2022/12/29 07:46:14;;;;;;;33.00;16.38;;;;;;;;;;5031376;28;20018;-83
2022/12/29 07:48:40;;;;;;;32.42;15.77;;;;;;;;;;5015593;28;20603;-82
2022/12/29 07:51:06;;;;;;;27.58;15.18;;;;;;;;;;5014063;28;20026;-82
2022/12/29 07:53:32;;;;;;;29.90;15.27;;;;;;;;;;5016144;28;20025;-80
2022/12/29 07:55:58;;;;;;;33.45;16.42;;;;;;;;;;5033740;28;20472;-80
2022/12/29 07:58:24;;;;;;;32.50;16.70;;;;;;;;;;5023192;28;20018;-81
2022/12/29 08:00:54;;;;;;;30.70;17.33;;;;;;;;;;5013467;28;20052;-82
2022/12/29 08:03:20;;;;;;;36.55;16.50;;;;;;;;;;5015960;28;20524;-80
2022/12/29 08:05:46;;;;;;;32.90;17.50;;;;;;;;;;5019797;28;20036;-80
2022/12/29 08:08:12;;;;;;;35.40;16.50;;;;;;;;;;5018390;28;20132;-80
2022/12/29 08:10:38;;;;;;;36.47;17.80;;;;;;;;;;5014732;28;20396;-79
2022/12/29 08:13:04;;;;;;;34.65;17.85;;;;;;;;;;5016247;28;20040;-80
2022/12/29 08:15:30;;;;;;;28.95;15.85;;;;;;;;;;5017081;28;20029;-80
2022/12/29 08:17:56;;;;;;;38.58;18.58;;;;;;;;;;5022304;28;20029;-79
2022/12/29 08:20:22;;;;;;;33.78;17.67;;;;;;;;;;5017965;28;20135;-79
2022/12/29 08:22:48;;;;;;;37.20;18.83;;;;;;;;;;5026285;28;20528;-78
2022/12/29 08:25:14;;;;;;;37.58;19.25;;;;;;;;;;5015381;28;20144;-80
2022/12/29 08:27:40;;;;;;;38.92;18.40;;;;;;;;;;5023609;28;20407;-82
2022/12/29 08:30:07;;;;;;;40.42;18.70;;;;;;;;;;5039349;28;20525;-81
2022/12/29 08:32:33;;;;;;;44.97;20.05;;;;;;;;;;5021536;28;20029;-81
2022/12/29 08:34:59;;;;;;;39.50;19.83;;;;;;;;;;5017397;28;20033;-81
2022/12/29 08:37:26;;;;;;;43.42;19.17;;;;;;;;;;5016471;28;20022;-82
2022/12/29 08:39:59;;;;;;;37.58;17.65;;;;;;;;;;5009300;28;20109;-81
2022/12/29 08:42:30;;;;;;;42.83;19.67;;;;;;;;;;5018594;28;20587;-80
2022/12/29 08:44:56;;;;;;;39.78;19.05;;;;;;;;;;5012992;28;20034;-79
2022/12/29 08:47:22;;;;;;;32.28;16.65;;;;;;;;;;5018415;28;20038;-81
2022/12/29 08:49:48;;;;;;;39.50;20.08;;;;;;;;;;5007738;28;20088;-79
2022/12/29 08:52:15;;;;;;;29.73;16.30;;;;;;;;;;5017373;28;20125;-80
2022/12/29 08:54:41;;;;;;;38.13;20.35;;;;;;;;;;5013842;28;20037;-79
2022/12/29 08:57:07;;;;;;;35.28;18.15;;;;;;;;;;5019406;28;20503;-81
2022/12/29 08:59:33;;;;;;;36.50;19.02;;;;;;;;;;5013541;28;20068;-79
2022/12/29 09:01:58;;;;;;;40.33;19.48;;;;;;;;;;5015606;28;20038;-81
2022/12/29 09:04:25;;;;;;;42.28;20.48;;;;;;;;;;5015608;28;20026;-79
2022/12/29 09:06:51;;;;;;;52.35;21.98;;;;;;;;;;5019111;28;20026;-80
2022/12/29 09:09:18;;;;;;;39.83;19.35;;;;;;;;;;5014769;28;20023;-81
2022/12/29 09:11:44;;;;;;;43.28;22.05;;;;;;;;;;5034299;28;20076;-82
2022/12/29 09:14:10;;;;;;;39.50;19.45;;;;;;;;;;5013908;28;20060;-81
2022/12/29 09:16:36;;;;;;;46.63;24.05;;;;;;;;;;5015662;28;20113;-81
2022/12/29 09:19:03;;;;;;;44.13;22.33;;;;;;;;;;5018705;28;20052;-80
2022/12/29 09:21:29;;;;;;;36.67;20.05;;;;;;;;;;5021440;28;20431;-79
2022/12/29 09:23:55;;;;;;;42.25;18.20;;;;;;;;;;5018008;28;20038;-82
2022/12/29 09:26:21;;;;;;;45.63;22.17;;;;;;;;;;5013953;28;20037;-82
2022/12/29 09:28:47;;;;;;;46.28;23.17;;;;;;;;;;5007505;28;20108;-80
2022/12/29 09:31:13;;;;;;;45.03;20.80;;;;;;;;;;5015327;28;20460;-80
2022/12/29 09:33:40;;;;;;;47.42;24.60;;;;;;;;;;5015307;28;20022;-81
2022/12/29 09:36:06;;;;;;;44.40;21.67;;;;;;;;;;5022495;28;20082;-80
2022/12/29 09:38:32;;;;;;;46.40;21.75;;;;;;;;;;5028130;28;20030;-81
2022/12/29 09:41:07;;;;;;;44.53;20.17;;;;;;;;;;5015318;28;20228;-82
2022/12/29 09:43:55;;;;;;;44.63;20.77;;;;;;;;;;5016244;28;20018;-82
2022/12/29 09:46:29;;;;;;;47.17;22.38;;;;;;;;;;5016023;28;20025;-81
2022/12/29 09:49:07;;;;;;;44.72;23.95;;;;;;;;;;5018736;28;20057;-79
2022/12/29 09:51:35;;;;;;;47.42;21.52;;;;;;;;;;5016086;28;20064;-84
2022/12/29 09:54:05;;;;;;;51.00;22.85;;;;;;;;;;5027048;28;20085;-81
2022/12/29 09:56:31;;;;;;;44.85;21.00;;;;;;;;;;5019342;28;20081;-82
2022/12/29 09:59:05;;;;;;;48.83;22.75;;;;;;;;;;5036023;28;20523;-81
2022/12/29 10:01:33;;;;;;;40.58;18.63;;;;;;;;;;5023779;28;20108;-81
2022/12/29 10:04:02;;;;;;;45.45;24.02;;;;;;;;;;5005982;28;20022;-80
2022/12/29 10:06:55;;;;;;;44.78;21.00;;;;;;;;;;5017055;28;20538;-82
2022/12/29 10:09:24;;;;;;;50.05;23.00;;;;;;;;;;5011068;28;20065;-81
2022/12/29 10:12:09;;;;;;;44.33;19.60;;;;;;;;;;5021886;28;20097;-81
2022/12/29 10:14:50;;;;;;;44.55;19.02;;;;;;;;;;5012246;28;20085;-82
2022/12/29 10:17:22;;;;;;;38.50;19.85;;;;;;;;;;5035044;28;20026;-79
2022/12/29 10:19:51;;;;;;;40.72;18.95;;;;;;;;;;5015615;28;20364;-82
2022/12/29 10:22:36;;;;;;;49.90;22.08;;;;;;;;;;5012394;28;20028;-81
2022/12/29 10:25:04;;;;;;;40.42;20.05;;;;;;;;;;5019500;28;20025;-80
2022/12/29 10:27:32;;;;;;;44.20;22.30;;;;;;;;;;5013716;28;20025;-80
2022/12/29 10:29:58;;;;;;;48.17;21.30;;;;;;;;;;5017244;28;20500;-81
2022/12/29 10:32:36;;;;;;;41.70;19.05;;;;;;;;;;5016190;28;20034;-81
2022/12/29 10:35:12;;;;;;;45.95;21.27;;;;;;;;;;5015662;28;20037;-80
2022/12/29 10:37:51;;;;;;;41.95;19.30;;;;;;;;;;5017640;28;20045;-81
2022/12/29 10:40:25;;;;;;;42.72;20.17;;;;;;;;;;5013688;28;20022;-82
2022/12/29 10:42:53;;;;;;;42.80;19.88;;;;;;;;;;5017573;28;20022;-82
2022/12/29 10:45:19;;;;;;;41.88;21.58;;;;;;;;;;5026105;28;20036;-80
2022/12/29 10:48:01;;;;;;;38.22;17.98;;;;;;;;;;5005811;28;20034;-81
2022/12/29 10:50:29;;;;;;;40.95;19.00;;;;;;;;;;4995658;28;20034;-81
2022/12/29 10:52:57;;;;;;;42.03;19.30;;;;;;;;;;5005662;28;20128;-80
2022/12/29 10:55:27;;;;;;;43.50;19.75;;;;;;;;;;5015012;28;20188;-81
2022/12/29 10:57:55;;;;;;;40.58;20.83;;;;;;;;;;5030280;28;20037;-82
2022/12/29 11:00:22;;;;;;;48.47;22.48;;;;;;;;;;5014042;28;20067;-80
2022/12/29 11:02:50;;;;;;;39.88;19.83;;;;;;;;;;5014365;28;20040;-80
2022/12/29 11:05:36;;;;;;;42.38;20.80;;;;;;;;;;5015093;28;20137;-79
2022/12/29 11:08:04;;;;;;;44.63;21.77;;;;;;;;;;5015456;28;20034;-82
2022/12/29 11:10:31;;;;;;;38.25;20.55;;;;;;;;;;5016131;28;20037;-83
2022/12/29 11:12:57;;;;;;;38.45;18.90;;;;;;;;;;5013812;28;20050;-82
2022/12/29 11:15:23;;;;;;;33.92;17.20;;;;;;;;;;5023071;28;20045;-80
2022/12/29 11:17:50;;;;;;;39.63;18.45;;;;;;;;;;5013523;28;20080;-82
2022/12/29 11:20:25;;;;;;;37.50;18.42;;;;;;;;;;5013156;28;20060;-81
2022/12/29 11:22:51;;;;;;;37.15;18.58;;;;;;;;;;5008230;28;21021;-79
2022/12/29 11:25:17;;;;;;;41.38;21.45;;;;;;;;;;5016696;28;20030;-79
2022/12/29 11:28:05;;;;;;;34.17;21.08;;;;;;;;;;5011149;28;20044;-83
2022/12/29 11:30:32;;;;;;;36.97;19.85;;;;;;;;;;4998642;28;20068;-83
2022/12/29 11:32:58;;;;;;;36.47;18.92;;;;;;;;;;5009063;28;20052;-80
2022/12/29 11:35:30;;;;;;;37.70;19.30;;;;;;;;;;5019952;28;20030;-79
2022/12/29 11:37:57;;;;;;;37.10;18.20;;;;;;;;;;5014755;28;20061;-79
2022/12/29 11:40:23;;;;;;;39.58;18.23;;;;;;;;;;5019398;28;20029;-80
2022/12/29 11:42:56;;;;;;;42.45;19.50;;;;;;;;;;5029693;28;20045;-83
2022/12/29 11:45:27;;;;;;;39.88;19.25;;;;;;;;;;5018635;28;20026;-79
2022/12/29 11:47:54;;;;;;;37.00;18.65;;;;;;;;;;5026794;28;20107;-79
2022/12/29 11:50:26;;;;;;;44.72;20.10;;;;;;;;;;5019502;28;20499;-81
2022/12/29 11:52:58;;;;;;;34.63;18.00;;;;;;;;;;5019673;28;20038;-78
2022/12/29 11:55:25;;;;;;;37.45;20.45;;;;;;;;;;5018095;28;20416;-80
2022/12/29 11:57:53;;;;;;;33.63;18.35;;;;;;;;;;5022610;28;20026;-79
2022/12/29 12:00:21;;;;;;;37.30;18.70;;;;;;;;;;5023460;28;20097;-81
2022/12/29 12:02:56;;;;;;;35.97;19.05;;;;;;;;;;5020543;28;20099;-80
2022/12/29 12:05:22;;;;;;;38.85;18.55;;;;;;;;;;5024697;28;20026;-80
2022/12/29 12:08:00;;;;;;;34.10;18.20;;;;;;;;;;5021509;28;20040;-84
2022/12/29 12:10:46;;;;;;;37.13;18.83;;;;;;;;;;5016112;28;20164;-81
2022/12/29 12:13:29;;;;;;;33.30;17.85;;;;;;;;;;5016874;28;20496;-80
2022/12/29 12:15:58;;;;;;;34.60;18.58;;;;;;;;;;5019957;28;20539;-83
2022/12/29 12:18:24;;;;;;;32.28;18.95;;;;;;;;;;5021463;28;20041;-79
2022/12/29 12:20:52;;;;;;;31.42;17.73;;;;;;;;;;5018797;28;20030;-83
2022/12/29 12:23:31;;;;;;;38.80;18.05;;;;;;;;;;5022251;28;20057;-83
2022/12/29 12:26:10;;;;;;;35.90;18.48;;;;;;;;;;5026430;28;20048;-81
2022/12/29 12:28:48;;;;;;;35.67;18.83;;;;;;;;;;5030804;28;20033;-82
2022/12/29 12:31:34;;;;;;;38.55;18.65;;;;;;;;;;5025273;28;20045;-81
2022/12/29 12:34:03;;;;;;;32.83;16.58;;;;;;;;;;5009740;28;20053;-84
2022/12/29 12:36:53;;;;;;;33.60;17.83;;;;;;;;;;5022274;28;20105;-82
2022/12/29 12:39:38;;;;;;;37.90;18.08;;;;;;;;;;5008226;28;20025;-84
2022/12/29 12:42:04;;;;;;;39.40;19.15;;;;;;;;;;5022845;28;20018;-83
2022/12/29 12:44:43;;;;;;;34.67;19.58;;;;;;;;;;5017583;28;20407;-80
2022/12/29 12:47:15;;;;;;;32.97;18.45;;;;;;;;;;5023626;28;20500;-83
2022/12/29 12:49:56;;;;;;;31.48;18.70;;;;;;;;;;5002887;28;20022;-81
2022/12/29 12:52:22;;;;;;;35.65;17.75;;;;;;;;;;5019703;28;20037;-82
2022/12/29 12:54:54;;;;;;;31.85;18.13;;;;;;;;;;5027876;28;20463;-83
2022/12/29 12:57:39;;;;;;;29.65;16.60;;;;;;;;;;5019846;28;20030;-81
2022/12/29 13:00:12;;;;;;;30.77;18.90;;;;;;;;;;5024903;28;20046;-81
2022/12/29 13:02:44;;;;;;;31.23;17.17;;;;;;;;;;5026129;28;20033;-82
2022/12/29 13:05:29;;;;;;;31.98;19.38;;;;;;;;;;5021023;28;20018;-83
2022/12/29 13:08:07;;;;;;;30.73;18.67;;;;;;;;;;5018990;28;20038;-83
2022/12/29 13:10:40;;;;;;;33.17;19.48;;;;;;;;;;5011978;28;20030;-82
2022/12/29 13:13:25;;;;;;;31.60;17.63;;;;;;;;;;5029948;28;20117;-81
2022/12/29 13:15:57;;;;;;;32.88;19.75;;;;;;;;;;5015929;28;20108;-82
2022/12/29 13:18:45;;;;;;;32.50;17.93;;;;;;;;;;5020213;28;20079;-83
2022/12/29 13:21:26;;;;;;;36.28;18.98;;;;;;;;;;5019797;28;20033;-83
2022/12/29 13:24:00;;;;;;;34.33;20.38;;;;;;;;;;5019499;28;20029;-83
2022/12/29 13:26:33;;;;;;;32.22;19.88;;;;;;;;;;5015668;28;20029;-82
2022/12/29 13:28:58;;;;;;;;;;;;;;;;;;5017519;28;20045;-83
2022/12/29 13:31:33;;;;;;;29.52;19.27;;;;;;;;;;5022717;28;19910;-81
2022/12/29 13:34:05;;;;;;;34.88;19.02;;;;;;;;;;5025833;28;20101;-80
2022/12/29 13:36:38;;;;;;;34.67;20.02;;;;;;;;;;5022963;28;20029;-80
2022/12/29 13:39:10;;;;;;;34.78;20.52;;;;;;;;;;5012035;28;20057;-81
2022/12/29 13:41:47;;;;;;;44.72;23.88;;;;;;;;;;5017846;28;20111;-80
2022/12/29 13:44:18;;;;;;;31.95;19.70;;;;;;;;;;5018644;28;20136;-81
2022/12/29 13:46:46;;;;;;;40.50;20.98;;;;;;;;;;5020429;28;20033;-81
2022/12/29 13:49:19;;;;;;;39.72;20.38;;;;;;;;;;5004527;28;20033;-80
2022/12/29 13:51:50;;;;;;;33.30;20.95;;;;;;;;;;5011925;28;20037;-81
2022/12/29 13:54:22;;;;;;;36.67;21.50;;;;;;;;;;5018377;28;20049;-82
2022/12/29 13:56:52;;;;;;;35.55;21.42;;;;;;;;;;5017903;28;20459;-81
2022/12/29 13:59:21;;;;;;;40.00;21.38;;;;;;;;;;5016837;28;20030;-82
2022/12/29 14:01:51;;;;;;;32.88;19.95;;;;;;;;;;5015519;28;20061;-82
2022/12/29 14:04:25;;;;;;;36.67;19.80;;;;;;;;;;5018972;28;20045;-82
2022/12/29 14:07:02;;;;;;;30.75;18.77;;;;;;;;;;5018202;28;20030;-81
2022/12/29 14:09:31;;;;;;;34.65;18.25;;;;;;;;;;5035560;28;20037;-81
2022/12/29 14:11:57;;;;;;;31.80;18.10;;;;;;;;;;5028677;28;20026;-81
2022/12/29 14:14:29;;;;;;;33.80;18.98;;;;;;;;;;4999336;28;20077;-81
2022/12/29 14:17:09;;;;;;;32.67;17.55;;;;;;;;;;4998923;28;20468;-82
2022/12/29 14:19:36;;;;;;;35.45;20.05;;;;;;;;;;5002257;28;20021;-81
2022/12/29 14:22:03;;;;;;;40.80;22.20;;;;;;;;;;5027719;28;20125;-81
2022/12/29 14:24:35;;;;;;;32.63;20.60;;;;;;;;;;5019558;28;20395;-82
2022/12/29 14:27:21;;;;;;;40.38;22.67;;;;;;;;;;5019635;28;20033;-83
2022/12/29 14:29:51;;;;;;;36.45;19.80;;;;;;;;;;5018705;28;20037;-83
2022/12/29 14:32:26;;;;;;;35.92;19.73;;;;;;;;;;5019122;28;20025;-82
2022/12/29 14:34:52;;;;;;;39.67;21.58;;;;;;;;;;5028890;28;20061;-82
2022/12/29 14:37:28;;;;;;;33.67;17.77;;;;;;;;;;5016812;28;20094;-82
2022/12/29 14:40:06;;;;;;;36.08;21.67;;;;;;;;;;5029056;28;20034;-83
2022/12/29 14:42:32;;;;;;;36.22;19.10;;;;;;;;;;5030599;28;20021;-82
2022/12/29 14:45:23;;;;;;;38.47;20.92;;;;;;;;;;5018761;28;20079;-83
2022/12/29 14:47:50;;;;;;;35.55;20.08;;;;;;;;;;5023370;28;20070;-83
2022/12/29 14:50:24;;;;;;;37.70;19.70;;;;;;;;;;5038463;28;20029;-83
2022/12/29 14:52:54;;;;;;;35.17;19.08;;;;;;;;;;5036082;28;20029;-80
2022/12/29 14:55:39;;;;;;;35.28;19.73;;;;;;;;;;5045357;28;20034;-82
2022/12/29 14:58:06;;;;;;;35.17;19.20;;;;;;;;;;5041588;28;20022;-82
2022/12/29 15:00:34;;;;;;;37.85;20.88;;;;;;;;;;5020063;28;20566;-83
2022/12/29 15:03:04;;;;;;;35.45;19.15;;;;;;;;;;5029027;28;20044;-82
2022/12/29 15:05:33;;;;;;;31.98;18.10;;;;;;;;;;5038436;28;20120;-83
2022/12/29 15:08:00;;;;;;;36.55;18.38;;;;;;;;;;5026063;28;20040;-83
2022/12/29 15:10:27;;;;;;;29.20;18.17;;;;;;;;;;5018383;28;20029;-82